sensor_id;sensor_type;location;lat;lon;timestamp;P1;durP1;ratioP1;P2;durP2;ratioP2
17604;SDS011;8921;50.964;6.800;2023-05-27T00:01:33;15.37;;;5.03;;
17604;SDS011;8921;50.964;6.800;2023-05-27T00:04:02;23.60;;;5.40;;
17604;SDS011;8921;50.964;6.800;2023-05-27T00:06:30;17.97;;;5.27;;
17604;SDS011;8921;50.964;6.800;2023-05-27T00:08:58;21.80;;;6.33;;
17604;SDS011;8921;50.964;6.800;2023-05-27T00:11:26;13.40;;;6.57;;
17604;SDS011;8921;50.964;6.800;2023-05-27T00:13:55;23.03;;;5.77;;
17604;SDS011;8921;50.964;6.800;2023-05-27T00:16:24;18.93;;;5.80;;
17604;SDS011;8921;50.964;6.800;2023-05-27T00:18:51;20.80;;;6.80;;
17604;SDS011;8921;50.964;6.800;2023-05-27T00:21:20;21.07;;;6.97;;
17604;SDS011;8921;50.964;6.800;2023-05-27T00:23:50;17.07;;;5.73;;
17604;SDS011;8921;50.964;6.800;2023-05-27T00:26:16;14.90;;;5.30;;
17604;SDS011;8921;50.964;6.800;2023-05-27T00:28:44;20.13;;;6.50;;
17604;SDS011;8921;50.964;6.800;2023-05-27T00:31:13;13.00;;;5.50;;
17604;SDS011;8921;50.964;6.800;2023-05-27T00:33:41;15.63;;;5.80;;
17604;SDS011;8921;50.964;6.800;2023-05-27T00:36:09;21.77;;;6.93;;
17604;SDS011;8921;50.964;6.800;2023-05-27T00:38:37;17.37;;;5.43;;
17604;SDS011;8921;50.964;6.800;2023-05-27T00:41:06;14.63;;;6.10;;
17604;SDS011;8921;50.964;6.800;2023-05-27T00:43:34;14.43;;;6.30;;
17604;SDS011;8921;50.964;6.800;2023-05-27T00:46:02;10.90;;;5.00;;
17604;SDS011;8921;50.964;6.800;2023-05-27T00:48:30;18.67;;;6.03;;
17604;SDS011;8921;50.964;6.800;2023-05-27T00:50:59;18.70;;;5.60;;
17604;SDS011;8921;50.964;6.800;2023-05-27T00:53:27;16.17;;;5.50;;
17604;SDS011;8921;50.964;6.800;2023-05-27T00:55:55;16.07;;;5.43;;
17604;SDS011;8921;50.964;6.800;2023-05-27T00:58:23;20.27;;;5.40;;
17604;SDS011;8921;50.964;6.800;2023-05-27T01:00:52;20.13;;;5.00;;
17604;SDS011;8921;50.964;6.800;2023-05-27T01:03:20;16.13;;;6.77;;
17604;SDS011;8921;50.964;6.800;2023-05-27T01:05:48;20.90;;;5.40;;
17604;SDS011;8921;50.964;6.800;2023-05-27T01:08:28;19.57;;;5.60;;
17604;SDS011;8921;50.964;6.800;2023-05-27T01:10:57;13.53;;;5.47;;
17604;SDS011;8921;50.964;6.800;2023-05-27T01:16:11;18.77;;;5.80;;
17604;SDS011;8921;50.964;6.800;2023-05-27T01:18:33;14.47;;;5.87;;
17604;SDS011;8921;50.964;6.800;2023-05-27T01:21:02;14.50;;;5.13;;
17604;SDS011;8921;50.964;6.800;2023-05-27T01:23:30;22.37;;;6.50;;
17604;SDS011;8921;50.964;6.800;2023-05-27T01:25:58;14.40;;;6.60;;
17604;SDS011;8921;50.964;6.800;2023-05-27T01:28:26;19.70;;;6.00;;
17604;SDS011;8921;50.964;6.800;2023-05-27T01:30:56;17.43;;;6.03;;
17604;SDS011;8921;50.964;6.800;2023-05-27T01:33:24;18.90;;;6.07;;
17604;SDS011;8921;50.964;6.800;2023-05-27T01:35:55;18.07;;;5.80;;
17604;SDS011;8921;50.964;6.800;2023-05-27T01:38:23;16.60;;;5.80;;
17604;SDS011;8921;50.964;6.800;2023-05-27T01:40:51;15.33;;;6.33;;
17604;SDS011;8921;50.964;6.800;2023-05-27T01:43:19;14.43;;;6.40;;
17604;SDS011;8921;50.964;6.800;2023-05-27T01:45:47;19.17;;;7.17;;
17604;SDS011;8921;50.964;6.800;2023-05-27T01:48:15;13.03;;;6.10;;
17604;SDS011;8921;50.964;6.800;2023-05-27T01:50:44;20.50;;;6.97;;
17604;SDS011;8921;50.964;6.800;2023-05-27T01:53:12;17.63;;;5.63;;
17604;SDS011;8921;50.964;6.800;2023-05-27T01:55:40;22.60;;;6.57;;
17604;SDS011;8921;50.964;6.800;2023-05-27T01:58:09;21.50;;;7.20;;
17604;SDS011;8921;50.964;6.800;2023-05-27T02:00:37;17.53;;;5.90;;
17604;SDS011;8921;50.964;6.800;2023-05-27T02:03:05;20.23;;;5.80;;
17604;SDS011;8921;50.964;6.800;2023-05-27T02:05:33;17.20;;;7.13;;
17604;SDS011;8921;50.964;6.800;2023-05-27T02:08:02;22.53;;;7.27;;
17604;SDS011;8921;50.964;6.800;2023-05-27T02:10:30;27.33;;;6.57;;
17604;SDS011;8921;50.964;6.800;2023-05-27T02:12:58;26.33;;;7.27;;
17604;SDS011;8921;50.964;6.800;2023-05-27T02:15:26;17.93;;;7.03;;
17604;SDS011;8921;50.964;6.800;2023-05-27T02:17:55;23.30;;;6.77;;
17604;SDS011;8921;50.964;6.800;2023-05-27T02:20:23;15.43;;;6.20;;
17604;SDS011;8921;50.964;6.800;2023-05-27T02:22:51;22.10;;;6.90;;
17604;SDS011;8921;50.964;6.800;2023-05-27T02:25:19;19.60;;;5.93;;
17604;SDS011;8921;50.964;6.800;2023-05-27T02:27:48;19.77;;;7.60;;
17604;SDS011;8921;50.964;6.800;2023-05-27T02:30:16;15.83;;;6.60;;
17604;SDS011;8921;50.964;6.800;2023-05-27T02:32:44;14.90;;;6.23;;
17604;SDS011;8921;50.964;6.800;2023-05-27T02:35:13;19.50;;;7.13;;
17604;SDS011;8921;50.964;6.800;2023-05-27T02:37:41;18.80;;;7.20;;
17604;SDS011;8921;50.964;6.800;2023-05-27T02:40:09;18.37;;;6.70;;
17604;SDS011;8921;50.964;6.800;2023-05-27T02:42:37;18.73;;;7.13;;
17604;SDS011;8921;50.964;6.800;2023-05-27T02:45:06;29.20;;;6.87;;
17604;SDS011;8921;50.964;6.800;2023-05-27T02:47:34;20.50;;;6.33;;
17604;SDS011;8921;50.964;6.800;2023-05-27T02:50:02;13.50;;;6.20;;
17604;SDS011;8921;50.964;6.800;2023-05-27T02:52:31;23.63;;;6.97;;
17604;SDS011;8921;50.964;6.800;2023-05-27T02:54:59;19.30;;;6.80;;
17604;SDS011;8921;50.964;6.800;2023-05-27T02:57:28;15.60;;;6.33;;
17604;SDS011;8921;50.964;6.800;2023-05-27T02:59:56;18.63;;;7.23;;
17604;SDS011;8921;50.964;6.800;2023-05-27T03:02:24;17.90;;;6.27;;
17604;SDS011;8921;50.964;6.800;2023-05-27T03:04:52;21.80;;;6.07;;
17604;SDS011;8921;50.964;6.800;2023-05-27T03:07:21;14.30;;;6.20;;
17604;SDS011;8921;50.964;6.800;2023-05-27T03:09:49;19.57;;;8.03;;
17604;SDS011;8921;50.964;6.800;2023-05-27T03:12:17;19.37;;;6.73;;
17604;SDS011;8921;50.964;6.800;2023-05-27T03:14:45;21.13;;;6.87;;
17604;SDS011;8921;50.964;6.800;2023-05-27T03:17:14;18.03;;;7.07;;
17604;SDS011;8921;50.964;6.800;2023-05-27T03:19:42;19.70;;;6.87;;
17604;SDS011;8921;50.964;6.800;2023-05-27T03:22:10;13.77;;;6.30;;
17604;SDS011;8921;50.964;6.800;2023-05-27T03:24:38;15.67;;;5.57;;
17604;SDS011;8921;50.964;6.800;2023-05-27T03:27:07;21.00;;;7.80;;
17604;SDS011;8921;50.964;6.800;2023-05-27T03:29:35;20.43;;;6.87;;
17604;SDS011;8921;50.964;6.800;2023-05-27T03:32:03;16.07;;;6.17;;
17604;SDS011;8921;50.964;6.800;2023-05-27T03:34:32;24.77;;;7.10;;
17604;SDS011;8921;50.964;6.800;2023-05-27T03:37:00;19.40;;;7.27;;
17604;SDS011;8921;50.964;6.800;2023-05-27T03:39:28;20.80;;;7.13;;
17604;SDS011;8921;50.964;6.800;2023-05-27T03:41:56;13.93;;;6.90;;
17604;SDS011;8921;50.964;6.800;2023-05-27T03:44:25;16.70;;;6.33;;
17604;SDS011;8921;50.964;6.800;2023-05-27T03:46:53;25.70;;;7.20;;
17604;SDS011;8921;50.964;6.800;2023-05-27T03:49:21;15.70;;;6.20;;
17604;SDS011;8921;50.964;6.800;2023-05-27T03:51:49;20.20;;;7.30;;
17604;SDS011;8921;50.964;6.800;2023-05-27T03:54:18;19.60;;;7.23;;
17604;SDS011;8921;50.964;6.800;2023-05-27T03:56:46;15.13;;;6.10;;
17604;SDS011;8921;50.964;6.800;2023-05-27T03:59:14;20.37;;;7.70;;
17604;SDS011;8921;50.964;6.800;2023-05-27T04:01:45;17.03;;;6.07;;
17604;SDS011;8921;50.964;6.800;2023-05-27T04:04:13;19.20;;;6.20;;
17604;SDS011;8921;50.964;6.800;2023-05-27T04:06:42;29.57;;;8.80;;
17604;SDS011;8921;50.964;6.800;2023-05-27T04:09:10;17.27;;;6.77;;
17604;SDS011;8921;50.964;6.800;2023-05-27T04:11:38;15.80;;;6.43;;
17604;SDS011;8921;50.964;6.800;2023-05-27T04:14:06;20.50;;;7.80;;
17604;SDS011;8921;50.964;6.800;2023-05-27T04:16:35;15.40;;;9.17;;
17604;SDS011;8921;50.964;6.800;2023-05-27T04:19:03;21.70;;;7.63;;
17604;SDS011;8921;50.964;6.800;2023-05-27T04:21:31;12.73;;;6.10;;
17604;SDS011;8921;50.964;6.800;2023-05-27T04:24:00;18.37;;;7.00;;
17604;SDS011;8921;50.964;6.800;2023-05-27T04:26:28;19.77;;;6.67;;
17604;SDS011;8921;50.964;6.800;2023-05-27T04:28:56;18.33;;;7.23;;
17604;SDS011;8921;50.964;6.800;2023-05-27T04:31:27;16.93;;;7.73;;
17604;SDS011;8921;50.964;6.800;2023-05-27T04:33:56;17.80;;;6.90;;
17604;SDS011;8921;50.964;6.800;2023-05-27T04:36:24;22.53;;;6.77;;
17604;SDS011;8921;50.964;6.800;2023-05-27T04:38:55;23.43;;;7.30;;
17604;SDS011;8921;50.964;6.800;2023-05-27T04:41:23;20.20;;;6.40;;
17604;SDS011;8921;50.964;6.800;2023-05-27T04:43:51;19.77;;;7.07;;
17604;SDS011;8921;50.964;6.800;2023-05-27T04:46:20;13.60;;;5.20;;
17604;SDS011;8921;50.964;6.800;2023-05-27T04:48:48;20.77;;;6.27;;
17604;SDS011;8921;50.964;6.800;2023-05-27T04:51:16;25.60;;;7.77;;
17604;SDS011;8921;50.964;6.800;2023-05-27T04:53:45;20.27;;;7.17;;
17604;SDS011;8921;50.964;6.800;2023-05-27T04:56:13;15.73;;;6.27;;
17604;SDS011;8921;50.964;6.800;2023-05-27T04:58:41;14.70;;;6.10;;
17604;SDS011;8921;50.964;6.800;2023-05-27T05:01:09;19.17;;;5.83;;
17604;SDS011;8921;50.964;6.800;2023-05-27T05:03:46;25.50;;;7.07;;
17604;SDS011;8921;50.964;6.800;2023-05-27T05:06:30;16.80;;;6.03;;
17604;SDS011;8921;50.964;6.800;2023-05-27T05:08:58;19.20;;;7.90;;
17604;SDS011;8921;50.964;6.800;2023-05-27T05:11:27;15.77;;;5.40;;
17604;SDS011;8921;50.964;6.800;2023-05-27T05:13:55;13.37;;;6.07;;
17604;SDS011;8921;50.964;6.800;2023-05-27T05:16:23;17.70;;;6.30;;
17604;SDS011;8921;50.964;6.800;2023-05-27T05:18:51;16.33;;;5.50;;
17604;SDS011;8921;50.964;6.800;2023-05-27T05:21:20;19.43;;;4.67;;
17604;SDS011;8921;50.964;6.800;2023-05-27T05:23:48;13.93;;;5.00;;
17604;SDS011;8921;50.964;6.800;2023-05-27T05:26:16;14.77;;;5.93;;
17604;SDS011;8921;50.964;6.800;2023-05-27T05:28:44;10.53;;;4.17;;
17604;SDS011;8921;50.964;6.800;2023-05-27T05:31:13;11.97;;;5.30;;
17604;SDS011;8921;50.964;6.800;2023-05-27T05:33:41;13.73;;;5.20;;
17604;SDS011;8921;50.964;6.800;2023-05-27T05:36:09;19.43;;;5.40;;
17604;SDS011;8921;50.964;6.800;2023-05-27T05:38:38;14.93;;;5.77;;
17604;SDS011;8921;50.964;6.800;2023-05-27T05:41:06;15.10;;;4.83;;
17604;SDS011;8921;50.964;6.800;2023-05-27T05:43:34;12.87;;;7.07;;
17604;SDS011;8921;50.964;6.800;2023-05-27T05:46:02;18.70;;;5.43;;
17604;SDS011;8921;50.964;6.800;2023-05-27T05:48:31;20.17;;;5.13;;
17604;SDS011;8921;50.964;6.800;2023-05-27T05:50:59;14.90;;;4.90;;
17604;SDS011;8921;50.964;6.800;2023-05-27T05:53:27;16.17;;;4.63;;
17604;SDS011;8921;50.964;6.800;2023-05-27T05:55:55;30.23;;;5.77;;
17604;SDS011;8921;50.964;6.800;2023-05-27T05:58:24;13.13;;;5.03;;
17604;SDS011;8921;50.964;6.800;2023-05-27T06:00:52;14.07;;;5.30;;
17604;SDS011;8921;50.964;6.800;2023-05-27T06:03:20;20.33;;;4.63;;
17604;SDS011;8921;50.964;6.800;2023-05-27T06:05:49;17.40;;;5.40;;
17604;SDS011;8921;50.964;6.800;2023-05-27T06:08:17;23.03;;;5.77;;
17604;SDS011;8921;50.964;6.800;2023-05-27T06:10:45;15.60;;;4.90;;
17604;SDS011;8921;50.964;6.800;2023-05-27T06:13:13;12.77;;;5.40;;
17604;SDS011;8921;50.964;6.800;2023-05-27T06:15:42;12.40;;;6.23;;
17604;SDS011;8921;50.964;6.800;2023-05-27T06:18:10;12.67;;;5.50;;
17604;SDS011;8921;50.964;6.800;2023-05-27T06:20:38;21.33;;;5.57;;
17604;SDS011;8921;50.964;6.800;2023-05-27T06:23:07;16.10;;;5.77;;
17604;SDS011;8921;50.964;6.800;2023-05-27T06:25:35;13.60;;;5.60;;
17604;SDS011;8921;50.964;6.800;2023-05-27T06:28:03;15.17;;;5.57;;
17604;SDS011;8921;50.964;6.800;2023-05-27T06:30:32;14.17;;;5.50;;
17604;SDS011;8921;50.964;6.800;2023-05-27T06:33:00;23.53;;;7.23;;
17604;SDS011;8921;50.964;6.800;2023-05-27T06:35:28;20.27;;;5.13;;
17604;SDS011;8921;50.964;6.800;2023-05-27T06:37:58;13.03;;;5.40;;
17604;SDS011;8921;50.964;6.800;2023-05-27T06:40:25;13.00;;;5.03;;
17604;SDS011;8921;50.964;6.800;2023-05-27T06:42:53;18.20;;;5.90;;
17604;SDS011;8921;50.964;6.800;2023-05-27T06:45:21;14.80;;;5.17;;
17604;SDS011;8921;50.964;6.800;2023-05-27T06:47:50;17.80;;;7.77;;
17604;SDS011;8921;50.964;6.800;2023-05-27T06:50:18;15.87;;;6.43;;
17604;SDS011;8921;50.964;6.800;2023-05-27T06:52:46;12.13;;;4.60;;
17604;SDS011;8921;50.964;6.800;2023-05-27T06:55:15;13.60;;;6.40;;
17604;SDS011;8921;50.964;6.800;2023-05-27T06:57:43;16.27;;;5.13;;
17604;SDS011;8921;50.964;6.800;2023-05-27T07:00:11;20.00;;;5.70;;
17604;SDS011;8921;50.964;6.800;2023-05-27T07:02:39;19.97;;;5.20;;
17604;SDS011;8921;50.964;6.800;2023-05-27T07:05:08;18.03;;;4.70;;
17604;SDS011;8921;50.964;6.800;2023-05-27T07:07:36;13.43;;;4.60;;
17604;SDS011;8921;50.964;6.800;2023-05-27T07:10:05;14.60;;;5.20;;
17604;SDS011;8921;50.964;6.800;2023-05-27T07:12:33;15.77;;;5.87;;
17604;SDS011;8921;50.964;6.800;2023-05-27T07:15:01;23.23;;;6.13;;
17604;SDS011;8921;50.964;6.800;2023-05-27T07:17:30;15.50;;;5.27;;
17604;SDS011;8921;50.964;6.800;2023-05-27T07:19:58;16.43;;;4.30;;
17604;SDS011;8921;50.964;6.800;2023-05-27T07:22:26;13.27;;;5.10;;
17604;SDS011;8921;50.964;6.800;2023-05-27T07:24:54;13.53;;;4.53;;
17604;SDS011;8921;50.964;6.800;2023-05-27T07:27:23;15.73;;;4.87;;
17604;SDS011;8921;50.964;6.800;2023-05-27T07:29:51;26.33;;;5.93;;
17604;SDS011;8921;50.964;6.800;2023-05-27T07:32:19;14.00;;;4.70;;
17604;SDS011;8921;50.964;6.800;2023-05-27T07:34:48;16.77;;;5.47;;
17604;SDS011;8921;50.964;6.800;2023-05-27T07:37:16;12.27;;;5.30;;
17604;SDS011;8921;50.964;6.800;2023-05-27T07:39:44;16.70;;;5.23;;
17604;SDS011;8921;50.964;6.800;2023-05-27T07:42:12;17.53;;;5.60;;
17604;SDS011;8921;50.964;6.800;2023-05-27T07:44:41;12.20;;;5.43;;
17604;SDS011;8921;50.964;6.800;2023-05-27T07:47:09;10.10;;;4.40;;
17604;SDS011;8921;50.964;6.800;2023-05-27T07:49:37;17.20;;;5.43;;
17604;SDS011;8921;50.964;6.800;2023-05-27T07:52:05;18.30;;;5.20;;
17604;SDS011;8921;50.964;6.800;2023-05-27T07:54:34;13.60;;;5.30;;
17604;SDS011;8921;50.964;6.800;2023-05-27T07:57:02;13.53;;;4.87;;
17604;SDS011;8921;50.964;6.800;2023-05-27T07:59:30;10.73;;;4.33;;
17604;SDS011;8921;50.964;6.800;2023-05-27T08:01:59;11.73;;;4.27;;
17604;SDS011;8921;50.964;6.800;2023-05-27T08:04:27;16.67;;;5.10;;
17604;SDS011;8921;50.964;6.800;2023-05-27T08:06:55;16.73;;;5.20;;
17604;SDS011;8921;50.964;6.800;2023-05-27T08:09:24;13.07;;;5.13;;
17604;SDS011;8921;50.964;6.800;2023-05-27T08:11:52;15.57;;;5.33;;
17604;SDS011;8921;50.964;6.800;2023-05-27T08:14:20;16.30;;;4.83;;
17604;SDS011;8921;50.964;6.800;2023-05-27T08:16:48;13.10;;;5.03;;
17604;SDS011;8921;50.964;6.800;2023-05-27T08:19:17;12.70;;;5.50;;
17604;SDS011;8921;50.964;6.800;2023-05-27T08:21:45;15.70;;;5.03;;
17604;SDS011;8921;50.964;6.800;2023-05-27T08:24:13;17.80;;;6.13;;
17604;SDS011;8921;50.964;6.800;2023-05-27T08:26:41;11.93;;;4.80;;
17604;SDS011;8921;50.964;6.800;2023-05-27T08:29:10;15.10;;;5.23;;
17604;SDS011;8921;50.964;6.800;2023-05-27T08:31:38;15.83;;;5.10;;
17604;SDS011;8921;50.964;6.800;2023-05-27T08:34:06;12.43;;;4.13;;
17604;SDS011;8921;50.964;6.800;2023-05-27T08:36:35;11.80;;;3.80;;
17604;SDS011;8921;50.964;6.800;2023-05-27T08:39:03;9.40;;;4.90;;
17604;SDS011;8921;50.964;6.800;2023-05-27T08:41:31;12.63;;;4.93;;
17604;SDS011;8921;50.964;6.800;2023-05-27T08:43:59;13.00;;;4.93;;
17604;SDS011;8921;50.964;6.800;2023-05-27T08:46:28;19.40;;;5.40;;
17604;SDS011;8921;50.964;6.800;2023-05-27T08:48:56;14.17;;;4.90;;
17604;SDS011;8921;50.964;6.800;2023-05-27T08:51:24;14.77;;;4.87;;
17604;SDS011;8921;50.964;6.800;2023-05-27T08:53:53;11.30;;;4.63;;
17604;SDS011;8921;50.964;6.800;2023-05-27T08:56:21;14.87;;;4.50;;
17604;SDS011;8921;50.964;6.800;2023-05-27T08:58:49;17.03;;;5.63;;
17604;SDS011;8921;50.964;6.800;2023-05-27T09:01:18;11.90;;;4.70;;
17604;SDS011;8921;50.964;6.800;2023-05-27T09:03:46;10.33;;;5.40;;
17604;SDS011;8921;50.964;6.800;2023-05-27T09:06:14;17.00;;;5.07;;
17604;SDS011;8921;50.964;6.800;2023-05-27T09:08:42;13.07;;;5.33;;
17604;SDS011;8921;50.964;6.800;2023-05-27T09:11:18;15.17;;;5.70;;
17604;SDS011;8921;50.964;6.800;2023-05-27T09:13:48;14.83;;;4.90;;
17604;SDS011;8921;50.964;6.800;2023-05-27T09:16:19;12.80;;;4.00;;
17604;SDS011;8921;50.964;6.800;2023-05-27T09:18:44;18.43;;;5.27;;
17604;SDS011;8921;50.964;6.800;2023-05-27T09:21:13;10.00;;;4.77;;
17604;SDS011;8921;50.964;6.800;2023-05-27T09:23:41;15.27;;;4.47;;
17604;SDS011;8921;50.964;6.800;2023-05-27T09:26:09;15.80;;;5.20;;
17604;SDS011;8921;50.964;6.800;2023-05-27T09:28:37;14.23;;;4.63;;
17604;SDS011;8921;50.964;6.800;2023-05-27T09:31:06;20.40;;;5.60;;
17604;SDS011;8921;50.964;6.800;2023-05-27T09:33:35;19.20;;;4.97;;
17604;SDS011;8921;50.964;6.800;2023-05-27T09:36:03;17.30;;;5.60;;
17604;SDS011;8921;50.964;6.800;2023-05-27T09:38:31;17.90;;;5.47;;
17604;SDS011;8921;50.964;6.800;2023-05-27T09:40:59;18.83;;;5.30;;
17604;SDS011;8921;50.964;6.800;2023-05-27T09:43:28;13.00;;;4.67;;
17604;SDS011;8921;50.964;6.800;2023-05-27T09:45:59;12.03;;;5.00;;
17604;SDS011;8921;50.964;6.800;2023-05-27T09:48:30;14.20;;;4.53;;
17604;SDS011;8921;50.964;6.800;2023-05-27T09:51:01;11.00;;;4.30;;
17604;SDS011;8921;50.964;6.800;2023-05-27T09:53:29;10.80;;;4.87;;
17604;SDS011;8921;50.964;6.800;2023-05-27T09:55:57;14.90;;;5.00;;
17604;SDS011;8921;50.964;6.800;2023-05-27T09:58:26;17.97;;;5.60;;
17604;SDS011;8921;50.964;6.800;2023-05-27T10:00:55;11.37;;;4.40;;
17604;SDS011;8921;50.964;6.800;2023-05-27T10:03:22;8.13;;;4.60;;
17604;SDS011;8921;50.964;6.800;2023-05-27T10:05:51;15.23;;;5.73;;
17604;SDS011;8921;50.964;6.800;2023-05-27T10:08:19;14.87;;;4.77;;
17604;SDS011;8921;50.964;6.800;2023-05-27T10:10:47;18.33;;;4.80;;
17604;SDS011;8921;50.964;6.800;2023-05-27T10:13:15;9.17;;;3.67;;
17604;SDS011;8921;50.964;6.800;2023-05-27T10:15:56;12.03;;;4.30;;
17604;SDS011;8921;50.964;6.800;2023-05-27T10:18:27;15.03;;;4.00;;
17604;SDS011;8921;50.964;6.800;2023-05-27T10:20:58;9.10;;;4.30;;
17604;SDS011;8921;50.964;6.800;2023-05-27T10:23:27;15.73;;;5.90;;
17604;SDS011;8921;50.964;6.800;2023-05-27T10:26:01;13.20;;;3.50;;
17604;SDS011;8921;50.964;6.800;2023-05-27T10:28:35;13.63;;;4.90;;
17604;SDS011;8921;50.964;6.800;2023-05-27T10:31:03;12.37;;;4.70;;
17604;SDS011;8921;50.964;6.800;2023-05-27T10:33:39;14.97;;;5.60;;
17604;SDS011;8921;50.964;6.800;2023-05-27T10:36:09;12.70;;;4.77;;
17604;SDS011;8921;50.964;6.800;2023-05-27T10:38:42;17.87;;;4.83;;
17604;SDS011;8921;50.964;6.800;2023-05-27T10:41:10;10.17;;;4.30;;
17604;SDS011;8921;50.964;6.800;2023-05-27T10:43:38;13.53;;;6.13;;
17604;SDS011;8921;50.964;6.800;2023-05-27T10:46:07;12.60;;;4.77;;
17604;SDS011;8921;50.964;6.800;2023-05-27T10:48:35;15.00;;;5.20;;
17604;SDS011;8921;50.964;6.800;2023-05-27T10:51:03;14.20;;;4.83;;
17604;SDS011;8921;50.964;6.800;2023-05-27T10:53:34;16.37;;;4.40;;
17604;SDS011;8921;50.964;6.800;2023-05-27T10:56:00;12.37;;;5.40;;
17604;SDS011;8921;50.964;6.800;2023-05-27T10:58:28;12.87;;;4.93;;
17604;SDS011;8921;50.964;6.800;2023-05-27T11:00:56;12.47;;;4.50;;
17604;SDS011;8921;50.964;6.800;2023-05-27T11:03:26;13.30;;;4.03;;
17604;SDS011;8921;50.964;6.800;2023-05-27T11:06:02;23.80;;;6.47;;
17604;SDS011;8921;50.964;6.800;2023-05-27T11:08:31;17.77;;;4.93;;
17604;SDS011;8921;50.964;6.800;2023-05-27T11:13:33;12.63;;;5.17;;
17604;SDS011;8921;50.964;6.800;2023-05-27T11:16:01;10.87;;;4.50;;
17604;SDS011;8921;50.964;6.800;2023-05-27T11:21:03;24.77;;;6.30;;
17604;SDS011;8921;50.964;6.800;2023-05-27T11:26:15;14.43;;;4.60;;
17604;SDS011;8921;50.964;6.800;2023-05-27T11:28:49;10.70;;;4.63;;
17604;SDS011;8921;50.964;6.800;2023-05-27T11:31:17;14.70;;;4.57;;
17604;SDS011;8921;50.964;6.800;2023-05-27T11:33:45;19.20;;;4.97;;
17604;SDS011;8921;50.964;6.800;2023-05-27T11:36:13;19.93;;;5.80;;
17604;SDS011;8921;50.964;6.800;2023-05-27T11:41:19;14.50;;;5.20;;
17604;SDS011;8921;50.964;6.800;2023-05-27T11:43:57;12.67;;;4.30;;
17604;SDS011;8921;50.964;6.800;2023-05-27T11:46:33;13.07;;;4.87;;
17604;SDS011;8921;50.964;6.800;2023-05-27T11:49:08;13.93;;;4.33;;
17604;SDS011;8921;50.964;6.800;2023-05-27T11:51:42;12.07;;;4.20;;
17604;SDS011;8921;50.964;6.800;2023-05-27T11:54:23;25.13;;;6.03;;
17604;SDS011;8921;50.964;6.800;2023-05-27T11:56:51;20.03;;;4.80;;
17604;SDS011;8921;50.964;6.800;2023-05-27T11:59:20;16.73;;;5.20;;
17604;SDS011;8921;50.964;6.800;2023-05-27T12:01:47;13.13;;;4.50;;
17604;SDS011;8921;50.964;6.800;2023-05-27T12:04:15;21.00;;;5.27;;
17604;SDS011;8921;50.964;6.800;2023-05-27T12:06:44;20.13;;;4.73;;
17604;SDS011;8921;50.964;6.800;2023-05-27T12:09:12;13.20;;;4.33;;
17604;SDS011;8921;50.964;6.800;2023-05-27T12:11:40;13.03;;;4.00;;
17604;SDS011;8921;50.964;6.800;2023-05-27T12:14:08;13.47;;;4.23;;
17604;SDS011;8921;50.964;6.800;2023-05-27T12:16:36;17.70;;;5.30;;
17604;SDS011;8921;50.964;6.800;2023-05-27T12:19:05;8.90;;;4.00;;
17604;SDS011;8921;50.964;6.800;2023-05-27T12:21:33;11.53;;;5.70;;
17604;SDS011;8921;50.964;6.800;2023-05-27T12:24:01;10.57;;;5.17;;
17604;SDS011;8921;50.964;6.800;2023-05-27T12:26:30;10.00;;;4.10;;
17604;SDS011;8921;50.964;6.800;2023-05-27T12:28:58;14.80;;;4.40;;
17604;SDS011;8921;50.964;6.800;2023-05-27T12:31:26;12.40;;;4.23;;
17604;SDS011;8921;50.964;6.800;2023-05-27T12:33:54;11.73;;;4.20;;
17604;SDS011;8921;50.964;6.800;2023-05-27T12:36:23;13.50;;;5.83;;
17604;SDS011;8921;50.964;6.800;2023-05-27T12:38:51;18.03;;;4.50;;
17604;SDS011;8921;50.964;6.800;2023-05-27T12:41:19;13.00;;;4.77;;
17604;SDS011;8921;50.964;6.800;2023-05-27T12:43:48;9.03;;;4.20;;
17604;SDS011;8921;50.964;6.800;2023-05-27T12:46:16;12.47;;;3.77;;
17604;SDS011;8921;50.964;6.800;2023-05-27T12:48:44;11.30;;;4.00;;
17604;SDS011;8921;50.964;6.800;2023-05-27T12:51:12;11.70;;;4.50;;
17604;SDS011;8921;50.964;6.800;2023-05-27T12:53:41;7.27;;;4.13;;
17604;SDS011;8921;50.964;6.800;2023-05-27T12:56:09;12.60;;;3.67;;
17604;SDS011;8921;50.964;6.800;2023-05-27T12:58:37;19.67;;;4.57;;
17604;SDS011;8921;50.964;6.800;2023-05-27T13:01:06;13.07;;;5.20;;
17604;SDS011;8921;50.964;6.800;2023-05-27T13:03:34;11.83;;;3.30;;
17604;SDS011;8921;50.964;6.800;2023-05-27T13:06:02;13.97;;;3.93;;
17604;SDS011;8921;50.964;6.800;2023-05-27T13:08:30;7.77;;;3.80;;
17604;SDS011;8921;50.964;6.800;2023-05-27T13:10:59;27.27;;;6.23;;
17604;SDS011;8921;50.964;6.800;2023-05-27T13:13:27;13.17;;;3.90;;
17604;SDS011;8921;50.964;6.800;2023-05-27T13:15:55;8.90;;;3.90;;
17604;SDS011;8921;50.964;6.800;2023-05-27T13:18:24;9.33;;;3.20;;
17604;SDS011;8921;50.964;6.800;2023-05-27T13:20:52;10.93;;;4.37;;
17604;SDS011;8921;50.964;6.800;2023-05-27T13:23:20;9.93;;;3.97;;
17604;SDS011;8921;50.964;6.800;2023-05-27T13:25:49;10.27;;;3.70;;
17604;SDS011;8921;50.964;6.800;2023-05-27T13:28:17;9.60;;;3.63;;
17604;SDS011;8921;50.964;6.800;2023-05-27T13:30:45;14.90;;;4.23;;
17604;SDS011;8921;50.964;6.800;2023-05-27T13:33:14;14.00;;;3.87;;
17604;SDS011;8921;50.964;6.800;2023-05-27T13:35:42;16.17;;;3.70;;
17604;SDS011;8921;50.964;6.800;2023-05-27T13:38:10;9.13;;;3.80;;
17604;SDS011;8921;50.964;6.800;2023-05-27T13:40:39;13.30;;;4.47;;
17604;SDS011;8921;50.964;6.800;2023-05-27T13:43:07;10.27;;;4.10;;
17604;SDS011;8921;50.964;6.800;2023-05-27T13:45:35;11.93;;;3.60;;
17604;SDS011;8921;50.964;6.800;2023-05-27T13:48:03;8.00;;;3.60;;
17604;SDS011;8921;50.964;6.800;2023-05-27T13:50:32;9.33;;;4.33;;
17604;SDS011;8921;50.964;6.800;2023-05-27T13:53:00;12.03;;;3.30;;
17604;SDS011;8921;50.964;6.800;2023-05-27T13:55:29;11.47;;;4.00;;
17604;SDS011;8921;50.964;6.800;2023-05-27T13:57:57;13.20;;;4.43;;
17604;SDS011;8921;50.964;6.800;2023-05-27T14:00:25;11.70;;;4.07;;
17604;SDS011;8921;50.964;6.800;2023-05-27T14:02:53;9.13;;;3.73;;
17604;SDS011;8921;50.964;6.800;2023-05-27T14:05:21;6.73;;;3.40;;
17604;SDS011;8921;50.964;6.800;2023-05-27T14:07:50;8.60;;;4.13;;
17604;SDS011;8921;50.964;6.800;2023-05-27T14:10:18;7.60;;;4.00;;
17604;SDS011;8921;50.964;6.800;2023-05-27T14:12:46;8.30;;;4.10;;
17604;SDS011;8921;50.964;6.800;2023-05-27T14:15:15;12.13;;;4.20;;
17604;SDS011;8921;50.964;6.800;2023-05-27T14:17:43;8.67;;;3.83;;
17604;SDS011;8921;50.964;6.800;2023-05-27T14:20:11;11.10;;;4.03;;
17604;SDS011;8921;50.964;6.800;2023-05-27T14:22:40;11.47;;;4.97;;
17604;SDS011;8921;50.964;6.800;2023-05-27T14:25:08;11.97;;;4.17;;
17604;SDS011;8921;50.964;6.800;2023-05-27T14:27:36;6.40;;;3.17;;
17604;SDS011;8921;50.964;6.800;2023-05-27T14:30:05;14.57;;;3.83;;
17604;SDS011;8921;50.964;6.800;2023-05-27T14:32:33;8.33;;;3.50;;
17604;SDS011;8921;50.964;6.800;2023-05-27T14:35:02;9.10;;;3.70;;
17604;SDS011;8921;50.964;6.800;2023-05-27T14:37:30;10.67;;;4.63;;
17604;SDS011;8921;50.964;6.800;2023-05-27T14:39:58;9.40;;;3.63;;
17604;SDS011;8921;50.964;6.800;2023-05-27T14:42:27;11.33;;;4.00;;
17604;SDS011;8921;50.964;6.800;2023-05-27T14:44:55;10.57;;;3.20;;
17604;SDS011;8921;50.964;6.800;2023-05-27T14:47:23;9.37;;;4.20;;
17604;SDS011;8921;50.964;6.800;2023-05-27T14:49:51;9.47;;;4.27;;
17604;SDS011;8921;50.964;6.800;2023-05-27T14:52:20;14.47;;;4.33;;
17604;SDS011;8921;50.964;6.800;2023-05-27T14:54:48;13.20;;;4.40;;
17604;SDS011;8921;50.964;6.800;2023-05-27T14:57:16;15.17;;;4.30;;
17604;SDS011;8921;50.964;6.800;2023-05-27T14:59:45;9.03;;;4.10;;
17604;SDS011;8921;50.964;6.800;2023-05-27T15:02:13;10.73;;;4.03;;
17604;SDS011;8921;50.964;6.800;2023-05-27T15:04:41;10.00;;;3.87;;
17604;SDS011;8921;50.964;6.800;2023-05-27T15:07:09;7.20;;;4.03;;
17604;SDS011;8921;50.964;6.800;2023-05-27T15:09:38;9.57;;;4.20;;